createdAt,value
2018-10-19T00:00:23.976Z,10.60
2018-10-19T00:00:59.327Z,10.62
2018-10-19T00:01:35.030Z,10.68
2018-10-19T00:02:10.385Z,10.66
2018-10-19T00:02:45.691Z,10.58
2018-10-19T00:03:21.221Z,10.63
2018-10-19T00:03:56.647Z,10.59
2018-10-19T00:04:31.990Z,10.53
2018-10-19T00:05:07.249Z,10.52
2018-10-19T00:05:42.639Z,10.42
2018-10-19T00:06:17.747Z,10.55
2018-10-19T00:06:53.176Z,10.36
2018-10-19T00:07:28.534Z,10.43
2018-10-19T00:08:04.130Z,10.42
2018-10-19T00:08:39.570Z,10.39
2018-10-19T00:09:15.093Z,10.39
2018-10-19T00:09:50.446Z,10.40
2018-10-19T00:10:25.698Z,10.40
2018-10-19T00:11:01.113Z,10.36
2018-10-19T00:11:36.621Z,10.30
2018-10-19T00:12:12.036Z,10.28
2018-10-19T00:12:47.322Z,10.30
2018-10-19T00:13:22.471Z,10.28
2018-10-19T00:13:57.704Z,10.32
2018-10-19T00:14:33.163Z,10.33
2018-10-19T00:15:08.626Z,10.37
2018-10-19T00:15:43.827Z,10.32
2018-10-19T00:16:19.032Z,10.39
2018-10-19T00:16:54.195Z,10.36
2018-10-19T00:17:29.416Z,10.30
2018-10-19T00:18:04.778Z,10.39
2018-10-19T00:18:40.284Z,10.26
2018-10-19T00:19:15.827Z,10.28
2018-10-19T00:19:51.035Z,10.32
2018-10-19T00:20:26.705Z,10.33
2018-10-19T00:21:02.050Z,10.32
2018-10-19T00:21:37.338Z,10.28
2018-10-19T00:22:12.782Z,10.24
2018-10-19T00:22:48.191Z,10.32
2018-10-19T00:23:23.641Z,10.30
2018-10-19T00:23:58.847Z,10.33
2018-10-19T00:24:34.284Z,10.28
2018-10-19T00:25:09.716Z,10.34
2018-10-19T00:25:45.255Z,10.39
2018-10-19T00:26:20.590Z,10.33
2018-10-19T00:26:56.118Z,10.33
2018-10-19T00:27:31.318Z,10.32
2018-10-19T00:28:06.485Z,10.40
2018-10-19T00:28:41.613Z,10.40
2018-10-19T00:29:17.170Z,10.43
2018-10-19T00:29:52.891Z,10.36
2018-10-19T00:30:28.215Z,10.33
2018-10-19T00:31:03.370Z,10.24
2018-10-19T00:31:38.673Z,10.36
2018-10-19T00:32:13.810Z,10.32
2018-10-19T00:32:49.060Z,10.36
2018-10-19T00:33:24.441Z,10.40
2018-10-19T00:33:59.686Z,10.39
2018-10-19T00:34:35.108Z,10.37
2018-10-19T00:35:10.258Z,10.40
2018-10-19T00:35:45.592Z,10.34
2018-10-19T00:36:20.759Z,10.40
2018-10-19T00:36:56.340Z,10.36
2018-10-19T00:37:31.425Z,10.37
2018-10-19T00:38:06.793Z,10.44
2018-10-19T00:38:42.349Z,10.36
2018-10-19T00:39:17.534Z,10.26
2018-10-19T00:39:52.769Z,10.39
2018-10-19T00:40:28.123Z,10.40
2018-10-19T00:41:03.285Z,10.40
2018-10-19T00:41:38.703Z,10.37
2018-10-19T00:42:14.082Z,10.39
2018-10-19T00:42:49.652Z,10.37
2018-10-19T00:43:24.975Z,10.36
2018-10-19T00:44:00.409Z,10.42
2018-10-19T00:44:35.714Z,10.42
2018-10-19T00:45:11.013Z,10.37
2018-10-19T00:45:46.314Z,10.39
2018-10-19T00:46:21.719Z,10.40
2018-10-19T00:46:57.261Z,10.46
2018-10-19T00:47:32.690Z,10.42
2018-10-19T00:48:08.545Z,10.43
2018-10-19T00:48:44.085Z,10.39
2018-10-19T00:49:19.316Z,10.43
2018-10-19T00:49:54.722Z,10.53
2018-10-19T00:50:30.078Z,10.40
2018-10-19T00:51:05.506Z,10.37
2018-10-19T00:51:40.800Z,10.40
2018-10-19T00:52:16.341Z,10.37
2018-10-19T00:52:51.682Z,10.40
2018-10-19T00:53:27.145Z,10.43
2018-10-19T00:54:02.386Z,10.40
2018-10-19T00:54:38.021Z,10.42
2018-10-19T00:55:13.226Z,10.43
2018-10-19T00:55:48.568Z,10.43
2018-10-19T00:56:23.964Z,10.37
2018-10-19T00:56:59.171Z,10.43
2018-10-19T00:57:34.147Z,10.34
2018-10-19T00:58:09.290Z,10.44
2018-10-19T00:58:44.529Z,10.39
2018-10-19T00:59:19.931Z,10.42
2018-10-19T00:59:55.179Z,10.37
2018-10-19T01:00:30.427Z,10.37
2018-10-19T01:01:05.658Z,10.37
2018-10-19T01:01:41.083Z,10.37
2018-10-19T01:02:16.417Z,10.33
2018-10-19T01:02:51.841Z,10.36
2018-10-19T01:03:27.088Z,10.32
2018-10-19T01:04:02.320Z,10.28
2018-10-19T01:04:37.558Z,10.32
2018-10-19T01:05:13.091Z,10.26
2018-10-19T01:05:48.442Z,10.25
2018-10-19T01:06:23.864Z,10.25
2018-10-19T01:06:59.275Z,10.24
2018-10-19T01:07:34.710Z,10.24
2018-10-19T01:08:10.086Z,10.25
2018-10-19T01:08:45.533Z,10.26
2018-10-19T01:09:20.877Z,10.22
2018-10-19T01:09:56.400Z,10.22
2018-10-19T01:10:31.755Z,10.24
2018-10-19T01:11:07.317Z,10.19
2018-10-19T01:11:42.634Z,10.10
2018-10-19T01:12:18.142Z,10.19
2018-10-19T01:12:53.409Z,10.14
2018-10-19T01:13:29.070Z,10.12
2018-10-19T01:14:04.395Z,10.14
2018-10-19T01:14:39.804Z,10.12
2018-10-19T01:15:15.247Z,10.09
2018-10-19T01:15:50.711Z,10.18
2018-10-19T01:16:26.449Z,10.14
2018-10-19T01:17:01.687Z,10.12
2018-10-19T01:17:37.301Z,10.18
2018-10-19T01:18:12.601Z,10.21
2018-10-19T01:18:47.950Z,10.24
2018-10-19T01:19:23.291Z,10.15
2018-10-19T01:19:58.545Z,10.04
2018-10-19T01:20:33.883Z,10.06
2018-10-19T01:21:09.707Z,10.06
2018-10-19T01:21:44.867Z,10.15
2018-10-19T01:22:20.430Z,10.14
2018-10-19T01:22:55.895Z,10.18
2018-10-19T01:23:31.288Z,10.12
2018-10-19T01:24:06.698Z,10.17
2018-10-19T01:24:42.146Z,10.19
2018-10-19T01:25:17.850Z,10.18
2018-10-19T01:25:53.316Z,10.19
2018-10-19T01:26:28.952Z,10.21
2018-10-19T01:27:04.331Z,10.10
2018-10-19T01:27:40.029Z,10.04
2018-10-19T01:28:15.342Z,10.03
2018-10-19T01:28:50.739Z,10.06
2018-10-19T01:29:25.983Z,10.09
2018-10-19T01:30:01.021Z,10.15
2018-10-19T01:30:36.434Z,10.19
2018-10-19T01:31:11.785Z,10.12
2018-10-19T01:31:47.219Z,10.18
2018-10-19T01:32:22.658Z,10.18
2018-10-19T01:32:58.070Z,10.14
2018-10-19T01:33:33.504Z,10.15
2018-10-19T01:34:08.750Z,10.17
2018-10-19T01:34:43.976Z,10.17
2018-10-19T01:35:19.160Z,10.19
2018-10-19T01:35:54.691Z,10.12
2018-10-19T01:36:30.226Z,10.07
2018-10-19T01:37:05.458Z,10.15
2018-10-19T01:37:40.795Z,10.12
2018-10-19T01:38:16.573Z,10.19
2018-10-19T01:38:52.119Z,10.19
2018-10-19T01:39:27.436Z,10.19
2018-10-19T01:40:02.624Z,10.19
2018-10-19T01:40:37.985Z,10.19
2018-10-19T01:41:13.018Z,10.22
2018-10-19T01:41:48.307Z,10.09
2018-10-19T01:42:23.849Z,10.24
2018-10-19T01:42:59.197Z,10.17
2018-10-19T01:43:34.665Z,10.14
2018-10-19T01:44:10.109Z,10.17
2018-10-19T01:44:45.654Z,10.21
2018-10-19T01:45:20.848Z,10.26
2018-10-19T01:45:55.960Z,10.17
2018-10-19T01:46:31.779Z,10.12
2018-10-19T01:47:07.477Z,10.07
2018-10-19T01:47:42.630Z,10.12
2018-10-19T01:48:17.922Z,10.12
2018-10-19T01:48:53.277Z,10.12
2018-10-19T01:49:28.632Z,10.18
2018-10-19T01:50:04.074Z,10.12
2018-10-19T01:50:39.493Z,10.03
2018-10-19T01:51:14.945Z,10.06
2018-10-19T01:51:50.143Z,10.07
2018-10-19T01:52:25.164Z,10.06
2018-10-19T01:53:00.426Z,10.14
2018-10-19T01:53:35.724Z,10.10
2018-10-19T01:54:11.153Z,10.17
2018-10-19T01:54:46.720Z,10.07
2018-10-19T01:55:22.128Z,10.12
2018-10-19T01:55:57.288Z,10.10
2018-10-19T01:56:33.013Z,10.07
2018-10-19T01:57:08.282Z,10.17
2018-10-19T01:57:43.812Z,10.14
2018-10-19T01:58:19.266Z,10.09
2018-10-19T01:58:54.778Z,10.06
2018-10-19T01:59:30.298Z,10.09
2018-10-19T02:00:05.423Z,10.10
2018-10-19T02:00:40.642Z,10.10
2018-10-19T02:01:16.078Z,10.10
2018-10-19T02:01:51.305Z,10.07
2018-10-19T02:02:26.329Z,10.09
2018-10-19T02:03:01.822Z,10.04
2018-10-19T02:03:37.265Z,10.12
2018-10-19T02:04:12.527Z,10.12
2018-10-19T02:04:47.743Z,10.04
2018-10-19T02:05:23.020Z,10.09
2018-10-19T02:05:58.238Z,10.06
2018-10-19T02:06:33.795Z,10.09
2018-10-19T02:07:09.345Z,10.10
2018-10-19T02:07:44.368Z,9.96
2018-10-19T02:08:19.721Z,9.97
2018-10-19T02:08:54.999Z,10.03
2018-10-19T02:09:30.375Z,9.99
2018-10-19T02:10:05.521Z,9.99
2018-10-19T02:10:41.039Z,9.93
2018-10-19T02:11:16.337Z,10.01
2018-10-19T02:11:52.011Z,9.96
2018-10-19T02:12:27.135Z,9.99
2018-10-19T02:13:02.350Z,9.96
2018-10-19T02:13:37.790Z,10.03
2018-10-19T02:14:13.118Z,9.93
2018-10-19T02:14:48.671Z,10.00
2018-10-19T02:15:23.998Z,9.81
2018-10-19T02:15:59.521Z,9.82
2018-10-19T02:16:34.973Z,9.89
2018-10-19T02:17:10.620Z,9.79
2018-10-19T02:17:45.842Z,9.71
2018-10-19T02:18:21.279Z,9.79
2018-10-19T02:18:56.717Z,9.67
2018-10-19T02:19:32.132Z,9.64
2018-10-19T02:20:07.456Z,9.71
2018-10-19T02:20:43.113Z,9.82
2018-10-19T02:21:18.684Z,9.79
2018-10-19T02:21:54.012Z,9.71
2018-10-19T02:22:29.571Z,9.71
2018-10-19T02:23:04.704Z,9.73
2018-10-19T02:23:39.911Z,9.75
2018-10-19T02:24:15.444Z,9.68
2018-10-19T02:24:51.002Z,9.60
2018-10-19T02:25:26.461Z,9.61
2018-10-19T02:26:02.084Z,9.61
2018-10-19T02:26:37.530Z,9.63
2018-10-19T02:27:12.885Z,9.66
2018-10-19T02:27:48.273Z,9.64
2018-10-19T02:28:23.863Z,9.63
2018-10-19T02:28:59.283Z,9.60
2018-10-19T02:29:34.527Z,9.57
2018-10-19T02:30:10.034Z,9.58
2018-10-19T02:30:45.616Z,9.53
2018-10-19T02:31:21.170Z,9.52
2018-10-19T02:31:56.423Z,9.56
2018-10-19T02:32:31.650Z,9.46
2018-10-19T02:33:07.555Z,9.50
2018-10-19T02:33:44.331Z,9.50
2018-10-19T02:34:19.481Z,9.49
2018-10-19T02:34:54.910Z,9.35
2018-10-19T02:35:30.231Z,9.42
2018-10-19T02:36:05.559Z,9.34
2018-10-19T02:36:40.687Z,9.45
2018-10-19T02:37:15.750Z,9.35
2018-10-19T02:37:50.852Z,9.45
2018-10-19T02:38:26.339Z,9.48
2018-10-19T02:39:01.642Z,9.35
2018-10-19T02:39:36.742Z,9.39
2018-10-19T02:40:12.040Z,9.39
2018-10-19T02:40:47.456Z,9.32
2018-10-19T02:41:22.868Z,9.34
2018-10-19T02:41:58.004Z,9.34
2018-10-19T02:42:33.130Z,9.39
2018-10-19T02:43:08.463Z,9.32
2018-10-19T02:43:43.916Z,9.35
2018-10-19T02:44:19.288Z,9.31
2018-10-19T02:44:54.597Z,9.35
2018-10-19T02:45:29.998Z,9.30
2018-10-19T02:46:05.465Z,9.31
2018-10-19T02:46:40.671Z,9.35
2018-10-19T02:47:16.304Z,9.40
2018-10-19T02:47:51.560Z,9.32
2018-10-19T02:48:26.816Z,9.30
2018-10-19T02:49:02.237Z,9.34
2018-10-19T02:49:37.670Z,9.34
2018-10-19T02:50:12.816Z,9.34
2018-10-19T02:50:48.364Z,9.21
2018-10-19T02:51:23.838Z,9.27
2018-10-19T02:51:59.055Z,9.35
2018-10-19T02:52:34.527Z,9.21
2018-10-19T02:53:09.926Z,9.21
2018-10-19T02:53:45.106Z,9.25
2018-10-19T02:54:20.560Z,9.24
2018-10-19T02:54:55.888Z,9.24
2018-10-19T02:55:31.307Z,9.23
2018-10-19T02:56:06.529Z,9.24
2018-10-19T02:56:41.889Z,9.28
2018-10-19T02:57:17.254Z,9.18
2018-10-19T02:57:52.346Z,9.18
2018-10-19T02:58:27.559Z,9.16
2018-10-19T02:59:03.161Z,9.12
2018-10-19T02:59:38.252Z,9.04
2018-10-19T03:00:13.413Z,9.02
2018-10-19T03:00:48.717Z,9.06
2018-10-19T03:01:24.227Z,9.04
2018-10-19T03:01:59.905Z,9.01
2018-10-19T03:02:35.406Z,9.09
2018-10-19T03:03:11.328Z,9.02
2018-10-19T03:03:46.566Z,9.06
2018-10-19T03:04:21.787Z,8.99
2018-10-19T03:04:57.027Z,9.02
2018-10-19T03:05:32.225Z,8.94
2018-10-19T03:06:08.973Z,9.04
2018-10-19T03:06:44.332Z,9.01
2018-10-19T03:07:19.658Z,8.96
2018-10-19T03:07:54.879Z,8.93
2018-10-19T03:08:30.309Z,8.97
2018-10-19T03:09:05.696Z,8.91
2018-10-19T03:09:41.083Z,8.96
2018-10-19T03:10:16.415Z,8.87
2018-10-19T03:10:52.182Z,8.86
2018-10-19T03:11:27.399Z,8.88
2018-10-19T03:12:02.732Z,8.79
2018-10-19T03:12:38.373Z,8.86
2018-10-19T03:13:13.689Z,8.84
2018-10-19T03:13:49.445Z,8.81
2018-10-19T03:14:25.183Z,8.84
2018-10-19T03:15:00.468Z,8.79
2018-10-19T03:15:35.964Z,8.75
2018-10-19T03:16:11.310Z,8.83
2018-10-19T03:16:46.700Z,8.83
2018-10-19T03:17:22.124Z,8.76
2018-10-19T03:17:57.678Z,8.75
2018-10-19T03:18:33.087Z,8.71
2018-10-19T03:19:08.637Z,8.63
2018-10-19T03:19:44.111Z,8.68
2018-10-19T03:20:19.743Z,8.71
2018-10-19T03:20:54.988Z,8.62
2018-10-19T03:21:30.264Z,8.66
2018-10-19T03:22:05.854Z,8.66
2018-10-19T03:22:41.165Z,8.72
2018-10-19T03:23:16.580Z,8.68
2018-10-19T03:23:51.728Z,8.60
2018-10-19T03:24:27.449Z,8.68
2018-10-19T03:25:02.776Z,8.69
2018-10-19T03:25:38.040Z,8.63
2018-10-19T03:26:13.361Z,8.60
2018-10-19T03:26:48.776Z,8.53
2018-10-19T03:27:23.945Z,8.69
2018-10-19T03:27:59.373Z,8.63
2018-10-19T03:28:34.855Z,8.68
2018-10-19T03:29:10.334Z,8.54
2018-10-19T03:29:45.746Z,8.55
2018-10-19T03:30:20.981Z,8.58
2018-10-19T03:30:56.734Z,8.58
2018-10-19T03:31:31.796Z,8.58
2018-10-19T03:32:07.493Z,8.58
2018-10-19T03:32:42.790Z,8.55
2018-10-19T03:33:18.382Z,8.62
2018-10-19T03:33:53.726Z,8.51
2018-10-19T03:34:28.867Z,8.62
2018-10-19T03:35:04.564Z,8.60
2018-10-19T03:35:39.725Z,8.57
2018-10-19T03:36:15.036Z,8.48
2018-10-19T03:36:50.244Z,8.51
2018-10-19T03:37:25.646Z,8.54
2018-10-19T03:38:01.195Z,8.54
2018-10-19T03:38:36.619Z,8.53
2018-10-19T03:39:12.244Z,8.57
2018-10-19T03:39:47.479Z,8.51
2018-10-19T03:40:22.983Z,8.54
2018-10-19T03:40:58.438Z,8.55
2018-10-19T03:41:33.755Z,8.53
2018-10-19T03:42:09.234Z,8.53
2018-10-19T03:42:44.776Z,8.55
2018-10-19T03:43:20.070Z,8.51
2018-10-19T03:43:55.627Z,8.48
2018-10-19T03:44:30.937Z,8.55
2018-10-19T03:45:06.278Z,8.60
2018-10-19T03:45:41.519Z,8.55
2018-10-19T03:46:16.733Z,8.60
2018-10-19T03:46:52.439Z,8.54
2018-10-19T03:47:28.031Z,8.48
2018-10-19T03:48:03.372Z,8.48
2018-10-19T03:48:38.705Z,8.47
2018-10-19T03:49:14.071Z,8.51
2018-10-19T03:49:49.602Z,8.50
2018-10-19T03:50:25.087Z,8.48
2018-10-19T03:51:00.605Z,8.44
2018-10-19T03:51:36.224Z,8.42
2018-10-19T03:52:11.385Z,8.45
2018-10-19T03:52:46.716Z,8.45
2018-10-19T03:53:22.281Z,8.44
2018-10-19T03:53:57.581Z,8.40
2018-10-19T03:54:32.721Z,8.35
2018-10-19T03:55:07.964Z,8.39
2018-10-19T03:55:43.197Z,8.36
2018-10-19T03:56:18.513Z,8.29
2018-10-19T03:56:53.793Z,8.33
2018-10-19T03:57:28.999Z,8.32
2018-10-19T03:58:04.286Z,8.36
2018-10-19T03:58:39.634Z,8.37
2018-10-19T03:59:15.441Z,8.30
2018-10-19T03:59:50.713Z,8.29
2018-10-19T04:00:25.954Z,8.35
2018-10-19T04:01:01.421Z,8.25
2018-10-19T04:01:36.645Z,8.30
2018-10-19T04:02:11.993Z,8.28
2018-10-19T04:02:47.193Z,8.36
2018-10-19T04:03:22.768Z,8.21
2018-10-19T04:03:58.438Z,8.21
2018-10-19T04:04:33.648Z,8.30
2018-10-19T04:05:09.244Z,8.28
2018-10-19T04:05:44.393Z,8.25
2018-10-19T04:06:19.639Z,8.21
2018-10-19T04:06:55.134Z,8.25
2018-10-19T04:07:30.521Z,8.18
2018-10-19T04:08:05.841Z,8.14
2018-10-19T04:08:41.147Z,8.12
2018-10-19T04:09:16.676Z,8.20
2018-10-19T04:09:52.280Z,8.29
2018-10-19T04:10:27.343Z,8.25
2018-10-19T04:11:02.714Z,8.25
2018-10-19T04:11:37.940Z,8.28
2018-10-19T04:12:13.266Z,8.22
2018-10-19T04:12:48.896Z,8.17
2018-10-19T04:13:24.028Z,8.28
2018-10-19T04:13:59.174Z,8.20
2018-10-19T04:14:34.473Z,8.26
2018-10-19T04:15:09.929Z,8.29
2018-10-19T04:15:45.366Z,8.30
2018-10-19T04:16:20.774Z,8.32
2018-10-19T04:16:56.043Z,8.29
2018-10-19T04:17:31.320Z,8.26
2018-10-19T04:18:06.601Z,8.28
2018-10-19T04:18:41.916Z,8.21
2018-10-19T04:19:17.445Z,8.30
2018-10-19T04:19:52.951Z,8.29
2018-10-19T04:20:28.404Z,8.22
2018-10-19T04:21:04.111Z,8.26
2018-10-19T04:21:39.368Z,8.30
2018-10-19T04:22:14.710Z,8.30
2018-10-19T04:22:49.956Z,8.29
2018-10-19T04:23:25.597Z,8.26
2018-10-19T04:24:00.904Z,8.26
2018-10-19T04:24:36.264Z,8.25
2018-10-19T04:25:11.584Z,8.29
2018-10-19T04:25:47.143Z,8.30
2018-10-19T04:26:22.457Z,8.22
2018-10-19T04:26:57.598Z,8.30
2018-10-19T04:27:32.940Z,8.39
2018-10-19T04:28:08.122Z,8.37
2018-10-19T04:28:43.744Z,8.35
2018-10-19T04:29:19.284Z,8.37
2018-10-19T04:29:54.743Z,8.30
2018-10-19T04:30:30.102Z,8.39
2018-10-19T04:31:05.648Z,8.29
2018-10-19T04:31:41.280Z,8.26
2018-10-19T04:32:16.501Z,8.36
2018-10-19T04:32:52.109Z,8.29
2018-10-19T04:33:27.307Z,8.30
2018-10-19T04:34:02.624Z,8.21
2018-10-19T04:34:38.046Z,8.22
2018-10-19T04:35:13.638Z,8.35
2018-10-19T04:35:49.521Z,8.29
2018-10-19T04:36:25.179Z,8.30
2018-10-19T04:37:00.700Z,8.33
2018-10-19T04:37:36.335Z,8.32
2018-10-19T04:38:11.884Z,8.32
2018-10-19T04:38:47.270Z,8.35
2018-10-19T04:39:22.624Z,8.29
2018-10-19T04:39:57.943Z,8.33
2018-10-19T04:40:33.399Z,8.30
2018-10-19T04:41:08.754Z,8.28
2018-10-19T04:41:44.074Z,8.33
2018-10-19T04:42:19.219Z,8.29
2018-10-19T04:42:54.550Z,8.28
2018-10-19T04:43:29.751Z,8.28
2018-10-19T04:44:05.083Z,8.36
2018-10-19T04:44:40.219Z,8.28
2018-10-19T04:45:15.945Z,8.37
2018-10-19T04:45:51.272Z,8.33
2018-10-19T04:46:26.509Z,8.33
2018-10-19T04:47:01.982Z,8.30
2018-10-19T04:47:37.538Z,8.45
2018-10-19T04:48:12.914Z,8.45
2018-10-19T04:48:48.220Z,8.48
2018-10-19T04:49:23.368Z,8.32
2018-10-19T04:49:58.581Z,8.37
2018-10-19T04:50:34.009Z,8.42
2018-10-19T04:51:09.496Z,8.42
2018-10-19T04:51:44.968Z,8.39
2018-10-19T04:52:20.510Z,8.45
2018-10-19T04:52:55.745Z,8.45
2018-10-19T04:53:31.759Z,8.33
2018-10-19T04:54:06.003Z,8.42
2018-10-19T04:54:41.534Z,8.37
2018-10-19T04:55:17.056Z,8.36
2018-10-19T04:55:52.420Z,8.32
2018-10-19T04:56:27.955Z,8.37
2018-10-19T04:57:03.539Z,8.42
2018-10-19T04:57:39.126Z,8.35
2018-10-19T04:58:14.446Z,8.37
2018-10-19T04:58:49.983Z,8.32
2018-10-19T04:59:25.223Z,8.35
2018-10-19T05:00:00.563Z,8.33
2018-10-19T05:00:36.166Z,8.37
2018-10-19T05:01:11.911Z,8.33
2018-10-19T05:01:47.452Z,8.29
2018-10-19T05:02:22.714Z,8.30
2018-10-19T05:02:58.143Z,8.36
2018-10-19T05:03:33.345Z,8.33
2018-10-19T05:04:08.665Z,8.25
2018-10-19T05:04:43.964Z,8.28
2018-10-19T05:05:19.128Z,8.22
2018-10-19T05:05:54.750Z,8.20
2018-10-19T05:06:30.147Z,8.17
2018-10-19T05:07:05.290Z,8.18
2018-10-19T05:07:40.667Z,8.14
2018-10-19T05:08:16.252Z,8.17
2018-10-19T05:08:51.835Z,8.08
2018-10-19T05:09:27.260Z,8.15
2018-10-19T05:10:03.476Z,8.17
2018-10-19T05:10:38.922Z,8.15
2018-10-19T05:11:14.206Z,8.12
2018-10-19T05:11:49.390Z,8.12
2018-10-19T05:12:24.703Z,8.03
2018-10-19T05:13:00.161Z,8.00
2018-10-19T05:13:35.335Z,8.04
2018-10-19T05:14:10.883Z,8.02
2018-10-19T05:14:46.284Z,8.02
2018-10-19T05:15:21.880Z,8.02
2018-10-19T05:15:57.010Z,8.02
2018-10-19T05:16:32.250Z,8.02
2018-10-19T05:17:07.661Z,7.99
2018-10-19T05:17:42.922Z,7.96
2018-10-19T05:18:18.566Z,7.82
2018-10-19T05:18:53.933Z,7.94
2018-10-19T05:19:29.555Z,7.92
2018-10-19T05:20:04.995Z,7.90
2018-10-19T05:20:40.289Z,7.94
2018-10-19T05:21:15.330Z,7.94
2018-10-19T05:21:50.617Z,7.92
2018-10-19T05:22:26.136Z,7.93
2018-10-19T05:23:01.632Z,7.87
2018-10-19T05:23:37.015Z,7.85
2018-10-19T05:24:12.560Z,7.81
2018-10-19T05:24:48.143Z,7.87
2018-10-19T05:25:23.747Z,7.78
2018-10-19T05:25:58.985Z,7.89
2018-10-19T05:26:34.298Z,7.79
2018-10-19T05:27:09.627Z,7.89
2018-10-19T05:27:45.158Z,7.78
2018-10-19T05:28:20.468Z,7.81
2018-10-19T05:28:56.015Z,7.79
2018-10-19T05:29:31.680Z,7.85
2018-10-19T05:30:07.126Z,7.79
2018-10-19T05:30:42.662Z,7.77
2018-10-19T05:31:18.295Z,7.82
2018-10-19T05:31:53.765Z,7.79
2018-10-19T05:32:29.372Z,7.82
2018-10-19T05:33:05.133Z,7.84
2018-10-19T05:33:40.360Z,7.85
2018-10-19T05:34:15.625Z,7.78
2018-10-19T05:34:50.975Z,7.75
2018-10-19T05:35:26.221Z,7.82
2018-10-19T05:36:01.557Z,7.84
2018-10-19T05:36:36.928Z,7.84
2018-10-19T05:37:12.198Z,7.79
2018-10-19T05:37:47.315Z,7.72
2018-10-19T05:38:23.036Z,7.75
2018-10-19T05:38:58.739Z,7.79
2018-10-19T05:39:34.253Z,7.89
2018-10-19T05:40:09.854Z,7.81
2018-10-19T05:40:45.500Z,7.87
2018-10-19T05:41:21.061Z,7.78
2018-10-19T05:41:56.400Z,7.85
2018-10-19T05:42:31.716Z,7.82
2018-10-19T05:43:06.718Z,7.84
2018-10-19T05:43:42.070Z,7.87
2018-10-19T05:44:17.535Z,7.87
2018-10-19T05:44:52.720Z,7.87
2018-10-19T05:45:28.112Z,7.84
2018-10-19T05:46:03.949Z,7.94
2018-10-19T05:46:39.359Z,7.89
2018-10-19T05:47:14.876Z,7.96
2018-10-19T05:47:50.076Z,7.92
2018-10-19T05:48:25.333Z,7.89
2018-10-19T05:49:00.563Z,7.85
2018-10-19T05:49:35.785Z,7.90
2018-10-19T05:50:10.981Z,7.87
2018-10-19T05:50:46.320Z,7.93
2018-10-19T05:51:21.556Z,7.93
2018-10-19T05:51:56.668Z,7.96
2018-10-19T05:52:32.069Z,7.92
2018-10-19T05:53:07.741Z,7.84
2018-10-19T05:53:42.931Z,7.92
2018-10-19T05:54:18.595Z,7.97
2018-10-19T05:54:54.091Z,7.93
2018-10-19T05:55:29.529Z,7.94
2018-10-19T05:56:04.751Z,7.89
2018-10-19T05:56:40.178Z,7.85
2018-10-19T05:57:15.803Z,7.85
2018-10-19T05:57:51.233Z,7.94
2018-10-19T05:58:26.660Z,7.87
2018-10-19T05:59:02.057Z,7.90
2018-10-19T05:59:37.237Z,7.90
2018-10-19T06:00:12.644Z,7.92
2018-10-19T06:00:48.491Z,7.87
2018-10-19T06:01:24.007Z,7.87
2018-10-19T06:01:59.646Z,7.90
2018-10-19T06:02:34.987Z,7.82
2018-10-19T06:03:10.123Z,7.81
2018-10-19T06:03:45.531Z,7.82
2018-10-19T06:04:20.891Z,7.82
2018-10-19T06:04:56.207Z,7.84
2018-10-19T06:05:31.419Z,7.82
2018-10-19T06:06:06.692Z,7.82
2018-10-19T06:06:41.929Z,7.79
2018-10-19T06:07:17.366Z,7.79
2018-10-19T06:07:52.932Z,7.89
2018-10-19T06:08:28.311Z,7.81
2018-10-19T06:09:03.431Z,7.77
2018-10-19T06:09:38.587Z,7.85
2018-10-19T06:10:13.781Z,7.84
2018-10-19T06:10:49.323Z,7.79
2018-10-19T06:11:24.630Z,7.82
2018-10-19T06:11:59.870Z,7.79
2018-10-19T06:12:35.095Z,7.87
2018-10-19T06:13:10.484Z,7.85
2018-10-19T06:13:45.998Z,7.92
2018-10-19T06:14:20.931Z,7.81
2018-10-19T06:14:56.362Z,7.81
2018-10-19T06:15:31.780Z,7.82
2018-10-19T06:16:07.030Z,7.84
2018-10-19T06:16:42.291Z,7.82
2018-10-19T06:17:17.624Z,7.81
2018-10-19T06:17:52.865Z,7.87
2018-10-19T06:18:28.251Z,7.89
2018-10-19T06:19:03.681Z,7.87
2018-10-19T06:19:38.967Z,7.92
2018-10-19T06:20:14.577Z,7.92
2018-10-19T06:20:49.794Z,7.90
2018-10-19T06:21:25.362Z,7.87
2018-10-19T06:22:00.792Z,7.84
2018-10-19T06:22:36.513Z,7.85
2018-10-19T06:23:11.908Z,7.90
2018-10-19T06:23:47.211Z,7.87
2018-10-19T06:24:22.358Z,7.89
2018-10-19T06:24:57.454Z,7.94
2018-10-19T06:25:33.012Z,7.90
2018-10-19T06:26:08.417Z,7.94
2018-10-19T06:26:43.929Z,8.02
2018-10-19T06:27:19.360Z,7.99
2018-10-19T06:27:54.897Z,8.03
2018-10-19T06:28:30.322Z,8.03
2018-10-19T06:29:05.627Z,8.04
2018-10-19T06:29:41.069Z,8.03
2018-10-19T06:30:16.256Z,8.03
2018-10-19T06:30:51.678Z,8.03
2018-10-19T06:31:26.766Z,8.03
2018-10-19T06:32:02.182Z,8.03
2018-10-19T06:32:37.540Z,8.07
2018-10-19T06:33:12.896Z,8.02
2018-10-19T06:33:48.275Z,7.96
2018-10-19T06:34:23.428Z,8.10
2018-10-19T06:34:58.875Z,7.99
2018-10-19T06:35:34.290Z,8.12
2018-10-19T06:36:09.844Z,8.10
2018-10-19T06:36:45.345Z,8.17
2018-10-19T06:37:20.598Z,8.14
2018-10-19T06:37:55.926Z,8.18
2018-10-19T06:38:31.195Z,8.15
2018-10-19T06:39:06.740Z,8.20
2018-10-19T06:39:42.374Z,8.11
2018-10-19T06:40:17.773Z,8.21
2018-10-19T06:40:53.139Z,8.20
2018-10-19T06:41:28.162Z,8.15
2018-10-19T06:42:03.804Z,8.26
2018-10-19T06:42:39.527Z,8.25
2018-10-19T06:43:14.926Z,8.22
2018-10-19T06:43:50.037Z,8.22
2018-10-19T06:44:25.040Z,8.26
2018-10-19T06:45:00.470Z,8.22
2018-10-19T06:45:36.008Z,8.26
2018-10-19T06:46:11.265Z,8.30
2018-10-19T06:46:46.902Z,8.29
2018-10-19T06:47:22.373Z,8.39
2018-10-19T06:47:57.844Z,8.30
2018-10-19T06:48:33.165Z,8.40
2018-10-19T06:49:08.812Z,8.40
2018-10-19T06:49:44.028Z,8.45
2018-10-19T06:50:19.631Z,8.45
2018-10-19T06:50:54.657Z,8.51
2018-10-19T06:51:29.765Z,8.50
2018-10-19T06:52:04.986Z,8.51
2018-10-19T06:52:40.251Z,8.55
2018-10-19T06:53:15.506Z,8.57
2018-10-19T06:53:51.176Z,8.55
2018-10-19T06:54:26.832Z,8.62
2018-10-19T06:55:02.123Z,8.58
2018-10-19T06:55:37.539Z,8.58
2018-10-19T06:56:12.997Z,8.69
2018-10-19T06:56:48.265Z,8.63
2018-10-19T06:57:23.504Z,8.71
2018-10-19T06:57:59.153Z,8.72
2018-10-19T06:58:34.383Z,8.73
2018-10-19T06:59:10.048Z,8.79
2018-10-19T06:59:45.587Z,8.84
2018-10-19T07:00:21.102Z,8.78
2018-10-19T07:00:56.668Z,8.78
2018-10-19T07:01:32.378Z,8.83
2018-10-19T07:02:07.930Z,8.87
2018-10-19T07:02:43.165Z,8.87
2018-10-19T07:03:18.911Z,8.96
2018-10-19T07:03:54.232Z,8.91
2018-10-19T07:04:29.435Z,8.91
2018-10-19T07:05:04.880Z,8.94
2018-10-19T07:05:40.226Z,8.96
2018-10-19T07:06:15.541Z,8.88
2018-10-19T07:06:50.738Z,9.01
2018-10-19T07:07:25.830Z,9.02
2018-10-19T07:08:01.147Z,9.10
2018-10-19T07:08:36.509Z,9.05
2018-10-19T07:09:11.834Z,9.06
2018-10-19T07:09:47.299Z,9.24
2018-10-19T07:10:22.739Z,9.25
2018-10-19T07:10:58.168Z,9.23
2018-10-19T07:11:33.498Z,9.16
2018-10-19T07:12:09.121Z,9.20
2018-10-19T07:12:44.466Z,9.24
2018-10-19T07:13:19.870Z,9.28
2018-10-19T07:13:54.921Z,9.24
2018-10-19T07:14:30.355Z,9.28
2018-10-19T07:15:05.825Z,9.34
2018-10-19T07:15:41.388Z,9.39
2018-10-19T07:16:16.714Z,9.34
2018-10-19T07:16:52.237Z,9.34
2018-10-19T07:17:27.602Z,9.42
2018-10-19T07:18:03.085Z,9.35
2018-10-19T07:18:39.397Z,9.35
2018-10-19T07:19:14.623Z,9.34
2018-10-19T07:19:49.854Z,9.43
2018-10-19T07:20:25.254Z,9.42
2018-10-19T07:21:00.673Z,9.42
2018-10-19T07:21:36.036Z,9.40
2018-10-19T07:22:11.532Z,9.42
2018-10-19T07:22:46.860Z,9.40
2018-10-19T07:23:22.086Z,9.40
2018-10-19T07:23:57.500Z,9.39
2018-10-19T07:24:33.224Z,9.49
2018-10-19T07:25:08.517Z,9.49
2018-10-19T07:25:43.954Z,9.48
2018-10-19T07:26:19.464Z,9.50
2018-10-19T07:26:54.709Z,9.46
2018-10-19T07:27:29.790Z,9.58
2018-10-19T07:28:05.175Z,9.60
2018-10-19T07:28:40.537Z,9.67
2018-10-19T07:29:15.954Z,9.68
2018-10-19T07:29:51.196Z,9.61
2018-10-19T07:30:26.356Z,9.68
2018-10-19T07:31:01.676Z,9.67
2018-10-19T07:31:36.875Z,9.63
2018-10-19T07:32:12.061Z,9.78
2018-10-19T07:32:47.427Z,9.86
2018-10-19T07:33:22.854Z,9.86
2018-10-19T07:33:58.214Z,9.85
2018-10-19T07:34:33.633Z,9.82
2018-10-19T07:35:08.922Z,9.83
2018-10-19T07:35:44.393Z,9.86
2018-10-19T07:36:20.134Z,9.96
2018-10-19T07:36:55.568Z,9.86
2018-10-19T07:37:30.919Z,9.96
2018-10-19T07:38:06.319Z,9.97
2018-10-19T07:38:41.757Z,10.07
2018-10-19T07:39:17.362Z,10.06
2018-10-19T07:39:52.674Z,10.09
2018-10-19T07:40:28.308Z,10.14
2018-10-19T07:41:03.759Z,10.14
2018-10-19T07:41:39.141Z,10.21
2018-10-19T07:42:14.785Z,10.22
2018-10-19T07:42:50.201Z,10.22
2018-10-19T07:43:25.445Z,10.22
2018-10-19T07:44:00.709Z,10.19
2018-10-19T07:44:36.372Z,10.19
2018-10-19T07:45:11.699Z,10.21
2018-10-19T07:45:47.728Z,10.32
2018-10-19T07:46:23.069Z,10.28